CheckWX is a tool to help pilots better visualize weather data.  It is not intended as a substitute for an official pre-flight weather briefing.

08:35:46 UTC

KFDW METAR
Fairfield County Airport
Winnsboro, South Carolina, USA
Current

21 mins ago

KFDW 230815Z AUTO 17005KT 10SM CLR 15/09 A3010 RMK AO1
Observed
Apr-23 @ 08:15 UTC
Wind
  • 170° at 5 KTS
Visibility
10 SM
Flight Rules
VFR
Cloud Levels
  • Clear skies
Temperature
15°C / 59°F
Dewpoint
C / 48°F
Humidity
68%
Altimeter
30.1" Hg
Pressure
1019.32 hPa
Previous

41 mins ago

KFDW 230755Z AUTO 18004KT 10SM CLR 15/10 A3010 RMK AO1
Observed
Apr-23 @ 07:55 UTC
Wind
  • 180° at 4 KTS
Visibility
10 SM
Flight Rules
VFR
Cloud Levels
  • Clear skies
Temperature
15°C / 59°F
Dewpoint
10°C / 50°F
Humidity
72%
Altimeter
30.1" Hg
Pressure
1019.32 hPa
Previous

1 hour ago

KFDW 230735Z AUTO 19005KT 10SM CLR 15/10 A3011 RMK AO1
Observed
Apr-23 @ 07:35 UTC
Wind
  • 190° at 5 KTS
Visibility
10 SM
Flight Rules
VFR
Cloud Levels
  • Clear skies
Temperature
15°C / 59°F
Dewpoint
10°C / 50°F
Humidity
72%
Altimeter
30.11" Hg
Pressure
1019.62 hPa